createdAt,value
2022-12-24T00:04:17.432Z,48.4
2022-12-24T00:09:35.643Z,49.3
2022-12-24T00:14:53.700Z,48.6
2022-12-24T00:20:11.895Z,49.4
2022-12-24T00:25:30.128Z,48.7
2022-12-24T00:30:48.526Z,48.5
2022-12-24T00:36:07.085Z,48.6
2022-12-24T00:41:26.730Z,49.1
2022-12-24T00:46:45.557Z,48.6
2022-12-24T00:52:04.122Z,48.8
2022-12-24T00:57:22.892Z,48.7
2022-12-24T01:02:42.254Z,49.3
2022-12-24T01:08:00.877Z,49.5
2022-12-24T01:13:19.094Z,49.7
2022-12-24T01:18:37.613Z,49.1
2022-12-24T01:23:56.081Z,49.4
2022-12-24T01:29:14.859Z,49
2022-12-24T01:34:33.376Z,48.8
2022-12-24T01:39:51.853Z,48.7
2022-12-24T01:45:10.632Z,49.7
2022-12-24T01:50:29.145Z,49.2
2022-12-24T01:55:47.871Z,49.3
2022-12-24T02:01:06.453Z,49.9
2022-12-24T02:06:24.487Z,49.8
2022-12-24T02:11:43.234Z,49.7
2022-12-24T02:17:02.017Z,48.9
2022-12-24T02:22:20.539Z,49.5
2022-12-24T02:27:38.983Z,49
2022-12-24T02:32:57.242Z,49.6
2022-12-24T02:38:15.199Z,50.1
2022-12-24T02:43:33.665Z,49.7
2022-12-24T02:48:51.869Z,50.7
2022-12-24T02:54:10.400Z,50.4
2022-12-24T02:59:28.871Z,50.7
2022-12-24T03:04:47.116Z,50.8
2022-12-24T03:10:05.596Z,50.6
2022-12-24T03:15:24.065Z,49.9
2022-12-24T03:20:42.831Z,50.5
2022-12-24T03:26:01.645Z,50.8
2022-12-24T03:31:20.268Z,49.9
2022-12-24T03:36:38.832Z,50.4
2022-12-24T03:41:57.051Z,50
2022-12-24T03:47:15.247Z,50.6
2022-12-24T03:52:34.031Z,50.5
2022-12-24T03:57:52.325Z,50.4
2022-12-24T04:03:10.702Z,50.1
2022-12-24T04:08:28.918Z,50.6
2022-12-24T04:13:46.956Z,50
2022-12-24T04:19:05.417Z,49.9
2022-12-24T04:24:23.346Z,50.1
2022-12-24T04:29:41.612Z,50.4
2022-12-24T04:35:00.091Z,50.7
2022-12-24T04:40:18.565Z,50.5
2022-12-24T04:45:37.409Z,50.5
2022-12-24T04:50:55.650Z,49.8
2022-12-24T04:56:13.585Z,49.9
2022-12-24T05:01:32.642Z,50.4
2022-12-24T05:06:51.327Z,50.3
2022-12-24T05:12:09.516Z,50.3
2022-12-24T05:17:28.045Z,50.9
2022-12-24T05:22:46.240Z,50.6
2022-12-24T05:28:05.026Z,50.3
2022-12-24T05:33:23.119Z,50.1
2022-12-24T05:38:41.311Z,50.5
2022-12-24T05:43:59.222Z,50.8
2022-12-24T05:49:17.774Z,50.2
2022-12-24T05:54:36.543Z,50.8
2022-12-24T05:59:54.766Z,50.2
2022-12-24T06:05:13.089Z,50.9
2022-12-24T06:10:31.429Z,49.8
2022-12-24T06:15:34.648Z,49.7
2022-12-24T06:20:52.925Z,49.7
2022-12-24T06:26:11.405Z,49.7
2022-12-24T06:31:30.185Z,49.6
2022-12-24T06:36:48.219Z,50.1
2022-12-24T06:42:06.686Z,49.7
2022-12-24T06:47:25.472Z,49.9
2022-12-24T06:52:44.288Z,49.7
2022-12-24T06:58:02.545Z,49.7
2022-12-24T07:03:20.961Z,49.7
2022-12-24T07:08:39.498Z,49.5
2022-12-24T07:13:58.265Z,49.9
2022-12-24T07:19:16.773Z,50.2
2022-12-24T07:24:35.127Z,50.3
2022-12-24T07:29:53.640Z,49.7
2022-12-24T07:35:12.427Z,49.9
2022-12-24T07:40:30.973Z,49.8
2022-12-24T07:45:49.171Z,50
2022-12-24T07:51:07.720Z,50.6
2022-12-24T07:56:25.956Z,50.6
2022-12-24T08:01:45.653Z,49.9
2022-12-24T08:07:04.600Z,50.7
2022-12-24T08:12:23.108Z,49.6
2022-12-24T08:17:41.593Z,49.6
2022-12-24T08:23:00.341Z,49.6
2022-12-24T08:28:18.597Z,49.4
2022-12-24T08:33:37.052Z,49.4
2022-12-24T08:38:55.606Z,50.2
2022-12-24T08:44:14.448Z,50.3
2022-12-24T08:49:32.628Z,49.6
2022-12-24T08:54:50.837Z,50.2
2022-12-24T09:00:09.406Z,49.5
2022-12-24T09:05:28.176Z,50.3
2022-12-24T09:10:46.960Z,49.3
2022-12-24T09:16:05.937Z,48.9
2022-12-24T09:21:24.686Z,49.9
2022-12-24T09:26:43.461Z,49.7
2022-12-24T09:32:02.484Z,49.5
2022-12-24T09:37:21.023Z,49.4
2022-12-24T09:42:39.220Z,49.4
2022-12-24T09:47:57.741Z,48.7
2022-12-24T09:53:16.195Z,48.9
2022-12-24T09:58:34.669Z,47.3
2022-12-24T10:03:52.933Z,47
2022-12-24T10:09:10.871Z,46.5
2022-12-24T10:14:13.459Z,45.5
2022-12-24T10:19:31.705Z,47.1
2022-12-24T10:24:51.680Z,46.5
2022-12-24T10:30:18.232Z,45.6
2022-12-24T10:35:36.810Z,46.5
2022-12-24T10:40:55.016Z,46
2022-12-24T10:46:14.103Z,46.9
2022-12-24T10:51:32.714Z,47.2
2022-12-24T10:56:51.168Z,47.3
2022-12-24T11:02:10.053Z,47.6
2022-12-24T11:07:28.641Z,47.7
2022-12-24T11:13:38.201Z,47.9
2022-12-24T11:18:56.971Z,47.1
2022-12-24T11:24:15.207Z,48.3
2022-12-24T11:29:33.691Z,47.5
2022-12-24T11:34:52.597Z,48.3
2022-12-24T11:40:11.153Z,47.9
2022-12-24T11:45:29.914Z,47.4
2022-12-24T11:50:48.120Z,47.7
2022-12-24T11:56:07.029Z,48.6
2022-12-24T12:01:25.989Z,48
2022-12-24T12:06:44.278Z,48.5
2022-12-24T12:12:03.105Z,48.5
2022-12-24T12:17:21.547Z,48.4
2022-12-24T12:22:40.046Z,49.1
2022-12-24T12:27:58.635Z,49.1
2022-12-24T12:33:17.177Z,48.4
2022-12-24T12:38:35.968Z,48.6
2022-12-24T12:43:54.766Z,48.7
2022-12-24T12:49:13.529Z,48.6
2022-12-24T12:54:32.267Z,49
2022-12-24T12:59:51.340Z,49.4
2022-12-24T13:05:10.167Z,49.4
2022-12-24T13:10:28.890Z,49
2022-12-24T13:15:47.060Z,48.3
2022-12-24T13:21:05.272Z,48.3
2022-12-24T13:26:23.739Z,48.3
2022-12-24T13:31:27.128Z,49.1
2022-12-24T13:36:30.077Z,48.3
2022-12-24T13:41:48.572Z,48.6
2022-12-24T13:47:07.091Z,49.3
2022-12-24T13:52:25.264Z,48.5
2022-12-24T13:57:43.723Z,48.5
2022-12-24T14:03:02.541Z,49.5
2022-12-24T14:08:20.799Z,49.5
2022-12-24T14:13:39.587Z,49
2022-12-24T14:18:57.856Z,49.5
2022-12-24T14:24:16.085Z,49.7
2022-12-24T14:29:34.867Z,49.6
2022-12-24T14:34:53.352Z,49.5
2022-12-24T14:40:11.815Z,48.5
2022-12-24T14:45:30.617Z,48.7
2022-12-24T14:50:49.200Z,49.4
2022-12-24T14:56:07.665Z,48.3
2022-12-24T15:01:27.228Z,48.5
2022-12-24T15:06:45.930Z,49
2022-12-24T15:12:04.562Z,48.6
2022-12-24T15:17:23.033Z,49
2022-12-24T15:22:41.547Z,49.2
2022-12-24T15:27:59.757Z,48.4
2022-12-24T15:33:18.528Z,48.9
2022-12-24T15:38:37.318Z,49.1
2022-12-24T15:43:55.243Z,49
2022-12-24T15:49:13.747Z,49
2022-12-24T15:54:32.243Z,48.5
2022-12-24T15:59:50.715Z,48.8
2022-12-24T16:05:09.203Z,48.4
2022-12-24T16:10:27.732Z,49
2022-12-24T16:15:30.557Z,48.7
2022-12-24T16:20:49.053Z,48.8
2022-12-24T16:26:08.515Z,48.4
2022-12-24T16:31:27.345Z,48.7
2022-12-24T16:36:45.908Z,48.4
2022-12-24T16:42:04.458Z,48.2
2022-12-24T16:47:22.943Z,48.4
2022-12-24T16:52:41.137Z,48.3
2022-12-24T16:57:59.377Z,48.2
2022-12-24T17:03:18.130Z,48.2
2022-12-24T17:08:36.691Z,48.8
2022-12-24T17:13:55.305Z,49
2022-12-24T17:19:13.776Z,48.5
2022-12-24T17:24:32.288Z,48.5
2022-12-24T17:29:50.848Z,48.2
2022-12-24T17:35:09.352Z,48.3
2022-12-24T17:40:27.830Z,48.5
2022-12-24T17:45:46.066Z,48.3
2022-12-24T17:51:04.719Z,48.6
2022-12-24T17:56:23.292Z,48.3
2022-12-24T18:01:42.343Z,48.8
2022-12-24T18:07:03.839Z,48.1
2022-12-24T18:12:22.324Z,48.7
2022-12-24T18:17:40.605Z,48.1
2022-12-24T18:22:59.352Z,48
2022-12-24T18:28:17.846Z,48.6
2022-12-24T18:33:36.427Z,47.8
2022-12-24T18:38:54.886Z,48.6
2022-12-24T18:44:13.384Z,48.7
2022-12-24T18:49:31.630Z,48
2022-12-24T18:54:50.367Z,48
2022-12-24T19:00:08.901Z,48.2
2022-12-24T19:05:27.334Z,48.2
2022-12-24T19:10:45.802Z,47.9
2022-12-24T19:16:04.660Z,48.7
2022-12-24T19:21:23.595Z,48.6
2022-12-24T19:26:42.334Z,48.6
2022-12-24T19:32:01.046Z,48.6
2022-12-24T19:37:19.841Z,48.4
2022-12-24T19:42:38.581Z,48.7
2022-12-24T19:47:57.377Z,48.4
2022-12-24T19:53:15.928Z,48.3
2022-12-24T19:58:34.106Z,48.2
2022-12-24T20:03:52.862Z,48.3
2022-12-24T20:09:11.118Z,48.4
2022-12-24T20:14:29.590Z,47.8
2022-12-24T20:19:48.364Z,48.6
2022-12-24T20:25:06.583Z,47.7
2022-12-24T20:30:25.071Z,47.7
2022-12-24T20:35:43.829Z,47.7
2022-12-24T20:41:02.450Z,47.8
2022-12-24T20:46:21.123Z,48.1
2022-12-24T20:51:39.627Z,48.4
2022-12-24T20:56:59.987Z,48.6
2022-12-24T21:02:19.519Z,47.7
2022-12-24T21:07:38.496Z,48
2022-12-24T21:12:57.305Z,47.7
2022-12-24T21:18:16.075Z,47.9
2022-12-24T21:23:34.547Z,48.4
2022-12-24T21:28:52.477Z,48.4
2022-12-24T21:34:10.964Z,48
2022-12-24T21:39:29.448Z,48.5
2022-12-24T21:44:48.271Z,47.8
2022-12-24T21:50:07.012Z,47.5
2022-12-24T21:55:25.513Z,48
2022-12-24T22:00:43.521Z,48.5
2022-12-24T22:06:01.722Z,47.7
2022-12-24T22:11:20.214Z,48.4
2022-12-24T22:16:39.305Z,47.7
2022-12-24T22:21:57.862Z,48.4
2022-12-24T22:27:16.674Z,48.6
2022-12-24T22:32:35.185Z,47.6
2022-12-24T22:38:00.841Z,47.7
2022-12-24T22:43:19.143Z,47.5
2022-12-24T22:48:37.970Z,48.2
2022-12-24T22:53:56.715Z,48.2
2022-12-24T22:59:15.495Z,47.2
2022-12-24T23:04:34.269Z,47.6
2022-12-24T23:09:52.741Z,47.4
2022-12-24T23:15:11.266Z,48.1
2022-12-24T23:20:29.762Z,48.1
2022-12-24T23:25:48.498Z,48.2
2022-12-24T23:31:07.198Z,48.2
2022-12-24T23:36:25.500Z,48.2
2022-12-24T23:41:43.981Z,48.2
2022-12-24T23:47:03.000Z,47.4
2022-12-24T23:52:21.611Z,48.1
2022-12-24T23:57:39.797Z,47.4
